Ocean Navigator — WSC2552 — position and weather

sailwx.info

Track history (hours):
 
Tides and Currents Weather Stations Pressure Air Temp Water Temp Dewpoint Dewpoint Depression Visibility Wind Speed Wind Dir Waves Ship Positions

Ocean Navigator

Owner: OCEAN NAVIGATOR INC, SEATTLE, WA. More information available from US FCC via Universal Licensing System and Coast Guard Vessel Documentation Center.

Last reported at 2015-Jul-27 02:32 UTC. Time now 2015-Jul-31 17:28 UTC.
Position N 51°30' W 127°52'.

Type: Tow > 200 m length. MMSI: 366358000.

Date/timePositionNaut miles runAvg speedWind from/ knotsBaromVisibWave heightAir tempDewpointWater temp
2015-Jul-27 02:32N 51°30' W 127°52'18 9.0
2015-Jul-27 00:33N 51°12' W 127°51'8 8.5
2015-Jul-26 23:33N 51°05' W 127°44'9 9.0
2015-Jul-26 22:33N 50°59' W 127°33'10 9.6
2015-Jul-26 21:33N 50°53' W 127°21'0 0.3
2015-Jul-26 20:33N 50°53' W 127°21'8 7.8
2015-Jul-26 19:33N 50°58' W 127°31'8 7.7
2015-Jul-26 18:33N 51°03' W 127°40'8 7.6
2015-Jul-26 17:33N 51°08' W 127°49'  
2015-Jul-19 22:26N 51°32' W 127°52'16 7.1
2015-Jul-19 20:07N 51°15' W 127°52'4 6.4
2015-Jul-19 19:33N 51°12' W 127°51'6 6.1
2015-Jul-19 18:33N 51°07' W 127°46'6 6.5
2015-Jul-19 17:33N 51°02' W 127°39'23 7.7
2015-Jul-19 14:33N 50°47' W 127°11'72 7.8
2015-Jul-19 05:23N 50°20' W 125°26'7 8.5
2015-Jul-19 04:33N 50°14' W 125°23'22 5.6
2015-Jul-19 00:33N 49°55' W 125°04'9 9.0
2015-Jul-18 23:33N 49°49' W 124°53'9 8.6
2015-Jul-18 22:33N 49°44' W 124°43'9 8.6
2015-Jul-18 21:33N 49°38' W 124°33'9 9.0
2015-Jul-18 20:33N 49°33' W 124°21'9 8.6
2015-Jul-18 19:33N 49°29' W 124°09'8 8.5
2015-Jul-18 18:33N 49°24' W 123°59'8 8.2
2015-Jul-18 17:33N 49°19' W 123°49'7 7.2
2015-Jul-18 16:33N 49°15' W 123°41'7 7.0
2015-Jul-18 15:33N 49°10' W 123°32'7 7.3
2015-Jul-18 14:33N 49°06' W 123°24'7 7.2
2015-Jul-18 13:34N 49°01' W 123°15'8 7.6
2015-Jul-18 12:33N 48°56' W 123°06'8 7.8
2015-Jul-18 11:33N 48°51' W 122°58'7 6.9
2015-Jul-18 10:32N 48°47' W 122°49'7 7.4
2015-Jul-18 09:33N 48°41' W 122°42'7 7.1
2015-Jul-18 08:33N 48°34' W 122°45'7 7.2
2015-Jul-18 07:33N 48°27' W 122°44'30 9.0
2015-Jul-18 04:14N 47°58' W 122°34'6 9.1
2015-Jul-18 03:33N 47°53' W 122°28'9 9.0
2015-Jul-18 02:33N 47°44' W 122°26'8 7.7
2015-Jul-18 01:29N 47°36' W 122°23'4 3.8
2015-Jul-18 00:33N 47°33' W 122°20'0 0.0
2015-Jul-17 23:33N 47°33' W 122°20'0 0.0
2015-Jul-17 22:33N 47°33' W 122°20'8 7.6
2015-Jul-17 21:34N 47°39' W 122°27'3 2.8
2015-Jul-17 20:33N 47°40' W 122°23'1 0.1
2015-Jul-17 05:34N 47°40' W 122°24'5 4.7
2015-Jul-17 04:33N 47°35' W 122°22'4 4.3
2015-Jul-17 03:34N 47°38' W 122°27'10 9.6
2015-Jul-17 02:34N 47°48' W 122°28'  
Track history (hours):
 
Tides and Currents Weather Stations Pressure Air Temp Water Temp Dewpoint Dewpoint Depression Visibility Wind Speed Wind Dir Waves Ship Positions

Ocean Navigator

Owner: OCEAN NAVIGATOR INC, SEATTLE, WA. More information available from US FCC via Universal Licensing System and Coast Guard Vessel Documentation Center.

Last reported at 2015-Jul-27 02:32 UTC. Time now 2015-Jul-31 17:28 UTC.
Position N 51°30' W 127°52'.

Type: Tow > 200 m length. MMSI: 366358000.

Date/timePositionNaut miles runAvg speedWind from/ knotsBaromVisibWave heightAir tempDewpointWater temp
2015-Jul-27 02:32N 51°30' W 127°52'18 9.0
2015-Jul-27 00:33N 51°12' W 127°51'8 8.5
2015-Jul-26 23:33N 51°05' W 127°44'9 9.0
2015-Jul-26 22:33N 50°59' W 127°33'10 9.6
2015-Jul-26 21:33N 50°53' W 127°21'0 0.3
2015-Jul-26 20:33N 50°53' W 127°21'8 7.8
2015-Jul-26 19:33N 50°58' W 127°31'8 7.7
2015-Jul-26 18:33N 51°03' W 127°40'8 7.6
2015-Jul-26 17:33N 51°08' W 127°49'  
2015-Jul-19 22:26N 51°32' W 127°52'16 7.1
2015-Jul-19 20:07N 51°15' W 127°52'4 6.4
2015-Jul-19 19:33N 51°12' W 127°51'6 6.1
2015-Jul-19 18:33N 51°07' W 127°46'6 6.5
2015-Jul-19 17:33N 51°02' W 127°39'23 7.7
2015-Jul-19 14:33N 50°47' W 127°11'72 7.8
2015-Jul-19 05:23N 50°20' W 125°26'7 8.5
2015-Jul-19 04:33N 50°14' W 125°23'22 5.6
2015-Jul-19 00:33N 49°55' W 125°04'9 9.0
2015-Jul-18 23:33N 49°49' W 124°53'9 8.6
2015-Jul-18 22:33N 49°44' W 124°43'9 8.6
2015-Jul-18 21:33N 49°38' W 124°33'9 9.0
2015-Jul-18 20:33N 49°33' W 124°21'9 8.6
2015-Jul-18 19:33N 49°29' W 124°09'8 8.5
2015-Jul-18 18:33N 49°24' W 123°59'8 8.2
2015-Jul-18 17:33N 49°19' W 123°49'7 7.2
2015-Jul-18 16:33N 49°15' W 123°41'7 7.0
2015-Jul-18 15:33N 49°10' W 123°32'7 7.3
2015-Jul-18 14:33N 49°06' W 123°24'7 7.2
2015-Jul-18 13:34N 49°01' W 123°15'8 7.6
2015-Jul-18 12:33N 48°56' W 123°06'8 7.8
2015-Jul-18 11:33N 48°51' W 122°58'7 6.9
2015-Jul-18 10:32N 48°47' W 122°49'7 7.4
2015-Jul-18 09:33N 48°41' W 122°42'7 7.1
2015-Jul-18 08:33N 48°34' W 122°45'7 7.2
2015-Jul-18 07:33N 48°27' W 122°44'30 9.0
2015-Jul-18 04:14N 47°58' W 122°34'6 9.1
2015-Jul-18 03:33N 47°53' W 122°28'9 9.0
2015-Jul-18 02:33N 47°44' W 122°26'8 7.7
2015-Jul-18 01:29N 47°36' W 122°23'4 3.8
2015-Jul-18 00:33N 47°33' W 122°20'0 0.0
2015-Jul-17 23:33N 47°33' W 122°20'0 0.0
2015-Jul-17 22:33N 47°33' W 122°20'8 7.6
2015-Jul-17 21:34N 47°39' W 122°27'3 2.8
2015-Jul-17 20:33N 47°40' W 122°23'1 0.1
2015-Jul-17 05:34N 47°40' W 122°24'5 4.7
2015-Jul-17 04:33N 47°35' W 122°22'4 4.3
2015-Jul-17 03:34N 47°38' W 122°27'10 9.6
2015-Jul-17 02:34N 47°48' W 122°28'  

Dump ship's entire track history